createdAt,value
2023-01-30T00:02:15.171Z,17.50
2023-01-30T00:04:43.437Z,17.10
2023-01-30T00:07:11.635Z,17.57
2023-01-30T00:09:41.115Z,15.37
2023-01-30T00:12:09.366Z,16.00
2023-01-30T00:14:37.619Z,17.10
2023-01-30T00:17:07.132Z,16.43
2023-01-30T00:19:35.295Z,18.20
2023-01-30T00:22:03.497Z,18.37
2023-01-30T00:24:31.790Z,19.97
2023-01-30T00:27:00.106Z,20.10
2023-01-30T00:29:28.313Z,18.97
2023-01-30T00:31:56.551Z,20.93
2023-01-30T00:34:26.213Z,21.20
2023-01-30T00:37:07.476Z,17.27
2023-01-30T00:39:36.433Z,17.90
2023-01-30T00:42:22.535Z,17.80
2023-01-30T00:45:08.496Z,17.47
2023-01-30T00:47:36.760Z,17.50
2023-01-30T00:50:07.333Z,17.90
2023-01-30T00:52:35.641Z,16.47
2023-01-30T00:55:03.791Z,18.77
2023-01-30T00:57:31.934Z,18.53
2023-01-30T01:00:00.293Z,15.23
2023-01-30T01:02:28.525Z,15.60
2023-01-30T01:04:56.729Z,19.70
2023-01-30T01:07:26.290Z,18.10
2023-01-30T01:09:54.571Z,18.53
2023-01-30T01:12:22.794Z,19.47
2023-01-30T01:14:51.402Z,20.63
2023-01-30T01:17:19.668Z,17.90
2023-01-30T01:19:47.862Z,18.20
2023-01-30T01:22:16.023Z,17.97
2023-01-30T01:24:45.537Z,17.93
2023-01-30T01:27:13.719Z,19.73
2023-01-30T01:29:41.881Z,22.33
2023-01-30T01:32:10.164Z,15.80
2023-01-30T01:34:38.527Z,19.53
2023-01-30T01:37:06.747Z,17.10
2023-01-30T01:39:48.877Z,17.77
2023-01-30T01:42:18.527Z,16.93
2023-01-30T01:45:01.207Z,17.40
2023-01-30T01:47:29.997Z,17.40
2023-01-30T01:49:58.330Z,18.73
2023-01-30T01:52:26.588Z,19.53
2023-01-30T01:54:56.683Z,20.67
2023-01-30T01:57:28.749Z,20.17
2023-01-30T02:00:00.232Z,19.07
2023-01-30T02:02:28.667Z,22.80
2023-01-30T02:05:06.478Z,32.93
2023-01-30T02:07:36.889Z,22.80
2023-01-30T02:10:05.354Z,16.70
2023-01-30T02:12:34.972Z,19.53
2023-01-30T02:15:04.342Z,19.40
2023-01-30T02:17:32.573Z,24.23
2023-01-30T02:20:06.438Z,17.90
2023-01-30T02:23:04.879Z,22.43
2023-01-30T02:25:46.348Z,18.83
2023-01-30T02:28:33.025Z,20.40
2023-01-30T02:31:09.979Z,19.07
2023-01-30T02:33:41.324Z,18.70
2023-01-30T02:36:15.380Z,18.90
2023-01-30T02:38:47.992Z,18.53
2023-01-30T02:41:22.141Z,20.10
2023-01-30T02:43:55.279Z,15.60
2023-01-30T02:46:27.209Z,18.80
2023-01-30T02:48:58.627Z,18.43
2023-01-30T02:51:29.642Z,18.10
2023-01-30T02:53:58.009Z,17.60
2023-01-30T02:56:26.169Z,17.70
2023-01-30T02:58:56.734Z,19.10
2023-01-30T03:01:44.211Z,16.97
2023-01-30T03:04:26.417Z,17.87
2023-01-30T03:07:02.960Z,18.87
2023-01-30T03:09:34.849Z,17.40
2023-01-30T03:12:05.454Z,19.00
2023-01-30T03:14:38.030Z,16.57
2023-01-30T03:17:07.978Z,16.87
2023-01-30T03:19:36.347Z,17.70
2023-01-30T03:22:04.666Z,17.20
2023-01-30T03:24:32.996Z,15.90
2023-01-30T03:27:05.071Z,15.50
2023-01-30T03:29:33.343Z,18.90
2023-01-30T03:32:01.662Z,18.67
2023-01-30T03:34:31.270Z,16.83
2023-01-30T03:36:59.664Z,18.00
2023-01-30T03:39:28.221Z,17.20
2023-01-30T03:41:56.579Z,16.20
2023-01-30T03:44:24.887Z,17.30
2023-01-30T03:46:53.110Z,17.80
2023-01-30T03:49:21.565Z,16.97
2023-01-30T03:51:51.160Z,17.43
2023-01-30T03:54:19.422Z,17.00
2023-01-30T03:56:47.653Z,15.13
2023-01-30T03:59:15.924Z,17.50
2023-01-30T04:01:44.105Z,20.50
2023-01-30T04:04:12.259Z,14.97
2023-01-30T04:06:40.455Z,18.57
2023-01-30T04:09:10.030Z,17.90
2023-01-30T04:11:38.271Z,18.63
2023-01-30T04:14:06.477Z,20.10
2023-01-30T04:16:34.695Z,20.90
2023-01-30T04:19:02.905Z,21.43
2023-01-30T04:21:31.077Z,18.90
2023-01-30T04:23:59.300Z,19.13
2023-01-30T04:26:28.878Z,18.80
2023-01-30T04:28:57.122Z,24.80
2023-01-30T04:31:25.368Z,21.43
2023-01-30T04:33:53.625Z,20.83
2023-01-30T04:36:21.823Z,22.67
2023-01-30T04:38:50.048Z,20.47
2023-01-30T04:41:18.301Z,18.53
2023-01-30T04:43:47.847Z,17.27
2023-01-30T04:46:16.333Z,17.43
2023-01-30T04:48:44.647Z,21.03
2023-01-30T04:51:12.990Z,16.70
2023-01-30T04:53:41.199Z,19.37
2023-01-30T04:56:09.559Z,17.27
2023-01-30T04:58:37.714Z,19.07
2023-01-30T05:01:18.136Z,18.90
2023-01-30T05:03:46.284Z,21.77
2023-01-30T05:06:14.485Z,15.80
2023-01-30T05:08:43.240Z,17.17
2023-01-30T05:11:12.441Z,17.20
2023-01-30T05:13:40.619Z,21.80
2023-01-30T05:16:09.169Z,16.97
2023-01-30T05:18:38.794Z,17.33
2023-01-30T05:21:07.567Z,19.00
2023-01-30T05:23:36.034Z,17.77
2023-01-30T05:26:04.275Z,17.23
2023-01-30T05:28:32.661Z,15.87
2023-01-30T05:31:03.230Z,16.90
2023-01-30T05:33:32.060Z,17.13
2023-01-30T05:36:01.669Z,17.03
2023-01-30T05:38:30.192Z,17.20
2023-01-30T05:41:02.094Z,16.40
2023-01-30T05:43:30.963Z,17.60
2023-01-30T05:46:00.118Z,16.30
2023-01-30T05:48:28.686Z,15.87
2023-01-30T05:50:58.199Z,15.90
2023-01-30T05:53:29.812Z,15.77
2023-01-30T05:55:58.122Z,16.83
2023-01-30T05:58:26.424Z,16.20
2023-01-30T06:00:54.644Z,17.67
2023-01-30T06:03:22.834Z,20.17
2023-01-30T06:05:50.986Z,13.90
2023-01-30T06:08:19.154Z,15.77
2023-01-30T06:10:48.637Z,14.00
2023-01-30T06:13:16.813Z,15.30
2023-01-30T06:15:45.275Z,15.10
2023-01-30T06:18:13.494Z,13.30
2023-01-30T06:20:41.679Z,17.50
2023-01-30T06:23:09.898Z,15.30
2023-01-30T06:25:38.114Z,16.87
2023-01-30T06:28:07.793Z,16.40
2023-01-30T06:30:35.973Z,15.20
2023-01-30T06:33:04.144Z,15.13
2023-01-30T06:35:32.407Z,14.73
2023-01-30T06:38:00.569Z,14.47
2023-01-30T06:40:28.732Z,14.63
2023-01-30T06:42:57.260Z,14.00
2023-01-30T06:45:26.837Z,14.50
2023-01-30T06:47:55.736Z,15.20
2023-01-30T06:50:25.123Z,13.30
2023-01-30T06:52:53.787Z,16.00
2023-01-30T06:55:22.751Z,11.33
2023-01-30T06:57:51.094Z,15.23
2023-01-30T07:00:20.266Z,12.40
2023-01-30T07:02:49.803Z,16.30
2023-01-30T07:05:18.240Z,16.40
2023-01-30T07:07:46.677Z,14.53
2023-01-30T07:10:14.876Z,14.80
2023-01-30T07:12:43.129Z,14.00
2023-01-30T07:15:11.601Z,15.63
2023-01-30T07:17:41.248Z,12.80
2023-01-30T07:20:11.593Z,13.83
2023-01-30T07:22:39.937Z,14.40
2023-01-30T07:25:08.454Z,12.43
2023-01-30T07:27:36.797Z,17.20
2023-01-30T07:30:05.134Z,12.10
2023-01-30T07:32:33.293Z,13.50
2023-01-30T07:35:02.337Z,12.80
2023-01-30T07:37:32.721Z,14.97
2023-01-30T07:40:00.883Z,13.70
2023-01-30T07:42:29.012Z,12.87
2023-01-30T07:44:57.176Z,12.60
2023-01-30T07:47:25.358Z,13.03
2023-01-30T07:49:53.558Z,15.80
2023-01-30T07:52:22.220Z,12.80
2023-01-30T07:54:51.816Z,11.43
2023-01-30T07:57:20.028Z,15.17
2023-01-30T07:59:48.276Z,11.83
2023-01-30T08:02:16.527Z,12.47
2023-01-30T08:04:44.924Z,10.97
2023-01-30T08:07:13.317Z,11.23
2023-01-30T08:09:41.688Z,11.53
2023-01-30T08:12:11.238Z,14.10
2023-01-30T08:14:39.403Z,11.57
2023-01-30T08:17:07.622Z,11.80
2023-01-30T08:19:35.859Z,12.23
2023-01-30T08:22:04.805Z,13.80
2023-01-30T08:24:33.012Z,14.53
2023-01-30T08:27:01.201Z,13.20
2023-01-30T08:29:30.884Z,11.47
2023-01-30T08:31:59.242Z,11.50
2023-01-30T08:34:27.724Z,11.17
2023-01-30T08:36:55.938Z,11.57
2023-01-30T08:39:24.178Z,13.37
2023-01-30T08:41:52.403Z,11.80
2023-01-30T08:44:20.630Z,11.83
2023-01-30T08:46:50.161Z,12.13
2023-01-30T08:49:18.459Z,14.00
2023-01-30T08:51:46.612Z,12.67
2023-01-30T08:54:14.997Z,12.93
2023-01-30T08:56:43.388Z,13.20
2023-01-30T08:59:11.583Z,10.30
2023-01-30T09:01:39.850Z,13.10
2023-01-30T09:04:09.404Z,11.90
2023-01-30T09:06:37.607Z,11.53
2023-01-30T09:09:05.868Z,12.70
2023-01-30T09:11:34.048Z,10.20
2023-01-30T09:14:02.249Z,13.00
2023-01-30T09:16:30.502Z,11.27
2023-01-30T09:18:58.743Z,11.17
2023-01-30T09:21:28.554Z,14.27
2023-01-30T09:23:57.720Z,11.40
2023-01-30T09:26:25.974Z,11.53
2023-01-30T09:28:54.218Z,11.40
2023-01-30T09:31:22.461Z,10.87
2023-01-30T09:33:50.689Z,10.43
2023-01-30T09:36:18.834Z,13.00
2023-01-30T09:38:48.369Z,12.83
2023-01-30T09:41:32.785Z,12.17
2023-01-30T09:44:07.775Z,11.50
2023-01-30T09:46:42.317Z,11.67
2023-01-30T09:49:16.946Z,12.13
2023-01-30T09:51:50.026Z,13.43
2023-01-30T09:54:24.220Z,11.83
2023-01-30T09:56:54.551Z,13.23
2023-01-30T09:59:26.068Z,12.70
2023-01-30T10:01:59.787Z,13.40
2023-01-30T10:04:31.308Z,11.70
2023-01-30T10:07:03.980Z,12.00
2023-01-30T10:09:40.369Z,10.60
2023-01-30T10:12:18.851Z,11.00
2023-01-30T10:14:56.454Z,8.70
2023-01-30T10:17:38.947Z,12.17
2023-01-30T10:20:18.515Z,9.80
2023-01-30T10:22:52.765Z,9.60
2023-01-30T10:25:29.344Z,10.93
2023-01-30T10:27:59.691Z,10.70
2023-01-30T10:30:27.927Z,9.30
2023-01-30T10:33:00.121Z,8.80
2023-01-30T10:35:31.602Z,7.90
2023-01-30T10:38:01.580Z,9.83
2023-01-30T10:40:35.333Z,8.77
2023-01-30T10:43:05.818Z,8.47
2023-01-30T10:45:37.461Z,9.80
2023-01-30T10:48:14.090Z,7.03
2023-01-30T10:50:47.118Z,6.87
2023-01-30T10:53:18.248Z,7.40
2023-01-30T10:55:49.951Z,7.00
2023-01-30T10:58:23.484Z,7.07
2023-01-30T11:00:54.003Z,6.23
2023-01-30T11:03:23.827Z,6.03
2023-01-30T11:05:52.942Z,6.57
2023-01-30T11:08:23.019Z,6.40
2023-01-30T11:10:53.220Z,5.43
2023-01-30T11:13:22.296Z,7.43
2023-01-30T11:15:52.097Z,5.60
2023-01-30T11:21:11.907Z,5.50
2023-01-30T11:23:41.884Z,5.10
2023-01-30T11:26:19.270Z,4.73
2023-01-30T11:28:48.962Z,4.90
2023-01-30T11:31:38.837Z,4.40
2023-01-30T11:34:15.088Z,4.50
2023-01-30T11:36:43.348Z,4.20
2023-01-30T11:39:23.028Z,4.47
2023-01-30T11:42:04.640Z,4.90
2023-01-30T11:44:34.014Z,4.83
2023-01-30T11:47:03.390Z,4.80
2023-01-30T11:49:44.580Z,5.53
2023-01-30T11:52:18.592Z,4.17
2023-01-30T11:54:48.868Z,4.80
2023-01-30T11:57:20.117Z,4.50
2023-01-30T11:59:49.687Z,4.60
2023-01-30T12:02:21.356Z,5.07
2023-01-30T12:04:53.914Z,5.37
2023-01-30T12:07:23.389Z,4.70
2023-01-30T12:09:51.714Z,5.30
2023-01-30T12:12:34.917Z,4.60
2023-01-30T12:15:07.212Z,4.70
2023-01-30T12:17:41.285Z,4.77
2023-01-30T12:20:14.435Z,4.53
2023-01-30T12:22:47.625Z,5.77
2023-01-30T12:25:17.983Z,4.77
2023-01-30T12:27:52.425Z,5.30
2023-01-30T12:30:23.413Z,6.00
2023-01-30T12:32:51.621Z,4.67
2023-01-30T12:35:20.793Z,5.43
2023-01-30T12:37:56.625Z,4.93
2023-01-30T12:40:31.716Z,4.43
2023-01-30T12:43:06.819Z,4.83
2023-01-30T12:45:36.334Z,4.63
2023-01-30T12:48:21.335Z,4.27
2023-01-30T12:50:56.724Z,4.07
2023-01-30T12:53:38.606Z,3.70
2023-01-30T12:56:24.476Z,4.63
2023-01-30T12:58:57.515Z,5.00
2023-01-30T13:01:29.805Z,4.83
2023-01-30T13:04:03.010Z,6.93
2023-01-30T13:06:39.744Z,3.80
2023-01-30T13:09:25.818Z,4.90
2023-01-30T13:11:59.212Z,3.47
2023-01-30T13:14:34.460Z,3.40
2023-01-30T13:17:07.073Z,3.93
2023-01-30T13:19:41.067Z,3.47
2023-01-30T13:22:14.089Z,3.97
2023-01-30T13:24:48.664Z,3.33
2023-01-30T13:27:17.666Z,3.50
2023-01-30T13:29:48.152Z,3.67
2023-01-30T13:32:17.970Z,3.27
2023-01-30T13:34:47.887Z,3.77
2023-01-30T13:37:17.398Z,2.90
2023-01-30T13:39:47.918Z,3.00
2023-01-30T13:42:20.472Z,3.87
2023-01-30T13:44:53.275Z,3.40
2023-01-30T13:47:26.048Z,2.40
2023-01-30T13:49:59.549Z,2.40
2023-01-30T13:52:31.950Z,2.93
2023-01-30T13:55:04.105Z,2.20
2023-01-30T13:57:38.194Z,2.60
2023-01-30T14:00:21.890Z,2.30
2023-01-30T14:03:08.742Z,3.07
2023-01-30T14:05:56.775Z,1.90
2023-01-30T14:08:26.523Z,2.33
2023-01-30T14:10:55.646Z,1.93
2023-01-30T14:13:24.618Z,2.30
2023-01-30T14:15:57.850Z,2.10
2023-01-30T14:18:28.630Z,2.10
2023-01-30T14:21:13.769Z,2.23
2023-01-30T14:23:43.667Z,2.40
2023-01-30T14:26:11.981Z,2.43
2023-01-30T14:28:52.021Z,2.17
2023-01-30T14:31:53.678Z,2.30
2023-01-30T14:34:49.235Z,2.07
2023-01-30T14:37:37.475Z,2.53
2023-01-30T14:40:29.570Z,2.23
2023-01-30T14:43:16.418Z,2.10
2023-01-30T14:45:48.780Z,2.40
2023-01-30T14:48:36.132Z,2.77
2023-01-30T14:51:12.450Z,2.57
2023-01-30T14:53:49.246Z,2.73
2023-01-30T14:56:19.374Z,3.40
2023-01-30T14:58:54.486Z,2.83
2023-01-30T15:01:22.756Z,3.00
2023-01-30T15:03:51.156Z,3.30
2023-01-30T15:06:20.338Z,2.63
2023-01-30T15:08:48.770Z,2.60
2023-01-30T15:11:19.669Z,3.03
2023-01-30T15:14:02.478Z,3.27
2023-01-30T15:16:45.373Z,4.30
2023-01-30T15:19:23.140Z,2.97
2023-01-30T15:21:57.045Z,3.80
2023-01-30T15:24:39.164Z,2.67
2023-01-30T15:27:13.382Z,4.10
2023-01-30T15:30:02.477Z,4.13
2023-01-30T15:32:31.641Z,4.20
2023-01-30T15:35:00.341Z,4.00
2023-01-30T15:37:32.279Z,3.57
2023-01-30T15:40:13.829Z,3.90
2023-01-30T15:42:45.060Z,2.60
2023-01-30T15:45:17.681Z,3.13
2023-01-30T15:47:53.748Z,3.33
2023-01-30T15:50:22.386Z,3.90
2023-01-30T15:52:51.623Z,4.17
2023-01-30T15:55:22.216Z,4.10
2023-01-30T15:57:51.660Z,4.00
2023-01-30T16:00:27.378Z,4.33
2023-01-30T16:02:56.228Z,4.10
2023-01-30T16:05:25.646Z,4.00
2023-01-30T16:07:54.849Z,5.57
2023-01-30T16:10:24.267Z,5.40
2023-01-30T16:12:54.619Z,4.33
2023-01-30T16:15:28.137Z,4.13
2023-01-30T16:18:00.102Z,4.87
2023-01-30T16:20:28.379Z,5.10
2023-01-30T16:22:56.612Z,4.20
2023-01-30T16:25:27.190Z,5.90
2023-01-30T16:27:55.386Z,6.10
2023-01-30T16:30:28.028Z,4.93
2023-01-30T16:32:57.362Z,6.30
2023-01-30T16:35:34.220Z,5.43
2023-01-30T16:38:04.039Z,5.33
2023-01-30T16:40:33.550Z,3.77
2023-01-30T16:43:02.582Z,5.20
2023-01-30T16:46:04.159Z,5.57
2023-01-30T16:48:34.427Z,6.03
2023-01-30T16:51:14.820Z,7.07
2023-01-30T16:53:48.832Z,6.80
2023-01-30T16:56:20.171Z,5.07
2023-01-30T16:58:50.564Z,6.37
2023-01-30T17:01:19.056Z,5.47
2023-01-30T17:03:52.830Z,4.70
2023-01-30T17:06:24.837Z,7.27
2023-01-30T17:08:54.207Z,6.40
2023-01-30T17:11:32.477Z,5.83
2023-01-30T17:14:18.829Z,9.37
2023-01-30T17:16:47.487Z,6.97
2023-01-30T17:19:16.164Z,7.50
2023-01-30T17:21:47.079Z,17.90
2023-01-30T17:24:16.668Z,12.43
2023-01-30T17:26:44.961Z,14.73
2023-01-30T17:29:23.331Z,16.30
2023-01-30T17:31:52.844Z,16.40
2023-01-30T17:34:22.621Z,7.03
2023-01-30T17:36:53.266Z,8.50
2023-01-30T17:39:22.059Z,8.73
2023-01-30T17:41:50.477Z,14.10
2023-01-30T17:44:18.895Z,11.10
2023-01-30T17:46:47.790Z,33.27
2023-01-30T17:49:17.146Z,73.23
2023-01-30T17:51:45.815Z,21.90
2023-01-30T17:54:16.388Z,16.00
2023-01-30T17:56:45.779Z,17.27
2023-01-30T17:59:14.782Z,8.60
2023-01-30T18:01:43.116Z,7.30
2023-01-30T18:04:11.556Z,8.03
2023-01-30T18:06:40.334Z,7.87
2023-01-30T18:09:09.040Z,43.03
2023-01-30T18:11:38.573Z,38.13
2023-01-30T18:14:07.297Z,21.13
2023-01-30T18:16:35.521Z,19.17
2023-01-30T18:19:06.025Z,39.50
2023-01-30T18:21:35.363Z,14.23
2023-01-30T18:24:03.643Z,13.07
2023-01-30T18:26:32.275Z,26.13
2023-01-30T18:29:01.858Z,18.47
2023-01-30T18:31:31.624Z,31.83
2023-01-30T18:33:59.843Z,15.43
2023-01-30T18:36:28.042Z,11.17
2023-01-30T18:38:56.558Z,29.40
2023-01-30T18:41:25.632Z,15.00
2023-01-30T18:43:55.650Z,7.73
2023-01-30T18:46:25.661Z,7.17
2023-01-30T18:48:53.949Z,5.57
2023-01-30T18:51:23.090Z,5.53
2023-01-30T18:53:52.228Z,6.03
2023-01-30T18:56:21.165Z,10.27
2023-01-30T18:58:52.256Z,9.23
2023-01-30T19:01:21.489Z,6.30
2023-01-30T19:03:51.096Z,6.23
2023-01-30T19:06:19.366Z,12.00
2023-01-30T19:08:47.715Z,10.90
2023-01-30T19:11:34.960Z,6.70
2023-01-30T19:14:03.721Z,11.20
2023-01-30T19:16:33.186Z,13.60
2023-01-30T19:19:03.120Z,5.50
2023-01-30T19:21:31.355Z,20.90
2023-01-30T19:23:59.676Z,23.57
2023-01-30T19:26:30.395Z,8.13
2023-01-30T19:28:58.812Z,17.17
2023-01-30T19:31:27.094Z,19.37
2023-01-30T19:33:56.536Z,7.87
2023-01-30T19:36:26.902Z,16.93
2023-01-30T19:38:55.090Z,8.47
2023-01-30T19:41:25.508Z,8.70
2023-01-30T19:43:54.455Z,13.37
2023-01-30T19:46:22.915Z,6.20
2023-01-30T19:48:51.179Z,20.17
2023-01-30T19:51:20.876Z,14.43
2023-01-30T19:53:52.216Z,7.60
2023-01-30T19:56:22.237Z,12.00
2023-01-30T19:58:51.726Z,8.70
2023-01-30T20:01:21.200Z,28.47
2023-01-30T20:03:49.729Z,24.97
2023-01-30T20:06:18.994Z,8.10
2023-01-30T20:08:49.134Z,8.60
2023-01-30T20:11:20.942Z,12.63
2023-01-30T20:13:49.673Z,10.20
2023-01-30T20:16:19.610Z,14.57
2023-01-30T20:18:48.660Z,12.03
2023-01-30T20:21:18.015Z,5.93
2023-01-30T20:23:47.409Z,4.77
2023-01-30T20:26:16.390Z,10.63
2023-01-30T20:28:45.933Z,6.33
2023-01-30T20:31:15.766Z,6.50
2023-01-30T20:33:44.223Z,6.17
2023-01-30T20:36:13.274Z,5.93
2023-01-30T20:38:42.226Z,5.93
2023-01-30T20:41:11.496Z,6.80
2023-01-30T20:43:40.630Z,5.63
2023-01-30T20:46:11.214Z,7.77
2023-01-30T20:48:40.595Z,8.97
2023-01-30T20:51:09.785Z,6.50
2023-01-30T20:53:38.366Z,6.00
2023-01-30T20:56:06.951Z,7.23
2023-01-30T20:58:35.159Z,7.37
2023-01-30T21:01:11.850Z,7.00
2023-01-30T21:03:41.333Z,6.83
2023-01-30T21:06:09.741Z,7.30
2023-01-30T21:08:39.457Z,7.47
2023-01-30T21:11:08.921Z,6.10
2023-01-30T21:13:38.278Z,8.10
2023-01-30T21:16:07.924Z,6.17
2023-01-30T21:18:38.431Z,6.30
2023-01-30T21:21:07.130Z,9.37
2023-01-30T21:23:35.431Z,5.27
2023-01-30T21:26:07.879Z,11.07
2023-01-30T21:28:36.960Z,7.80
2023-01-30T21:31:05.929Z,4.03
2023-01-30T21:33:34.199Z,4.60
2023-01-30T21:36:03.997Z,5.07
2023-01-30T21:38:50.107Z,4.10
2023-01-30T21:41:51.107Z,7.10
2023-01-30T21:44:19.808Z,5.70
2023-01-30T21:46:48.906Z,4.53
2023-01-30T21:49:17.538Z,5.33
2023-01-30T21:51:47.787Z,6.37
2023-01-30T21:54:16.777Z,5.10
2023-01-30T21:56:45.269Z,6.30
2023-01-30T21:59:13.869Z,4.60
2023-01-30T22:01:42.500Z,4.87
2023-01-30T22:04:13.811Z,4.50
2023-01-30T22:06:42.511Z,5.40
2023-01-30T22:09:13.764Z,5.53
2023-01-30T22:11:42.180Z,6.77
2023-01-30T22:14:13.081Z,5.50
2023-01-30T22:16:41.330Z,4.57
2023-01-30T22:19:09.892Z,7.13
2023-01-30T22:21:39.918Z,5.60
2023-01-30T22:24:09.470Z,4.93
2023-01-30T22:26:39.622Z,5.13
2023-01-30T22:29:08.148Z,7.03
2023-01-30T22:31:38.513Z,7.03
2023-01-30T22:34:06.809Z,4.87
2023-01-30T22:36:36.021Z,8.97
2023-01-30T22:39:04.442Z,5.17
2023-01-30T22:41:34.636Z,6.50
2023-01-30T22:44:04.784Z,5.93
2023-01-30T22:46:34.071Z,7.30
2023-01-30T22:49:03.134Z,4.60
2023-01-30T22:51:32.164Z,6.70
2023-01-30T22:54:01.077Z,5.50
2023-01-30T22:56:30.415Z,5.37
2023-01-30T22:58:58.681Z,5.60
2023-01-30T23:01:29.127Z,4.60
2023-01-30T23:03:58.383Z,5.67
2023-01-30T23:06:26.913Z,5.90
2023-01-30T23:08:55.682Z,4.80
2023-01-30T23:11:25.337Z,5.47
2023-01-30T23:13:54.317Z,4.53
2023-01-30T23:16:23.179Z,5.03
2023-01-30T23:18:58.772Z,5.90
2023-01-30T23:21:27.875Z,4.70
2023-01-30T23:23:56.942Z,4.57
2023-01-30T23:26:26.031Z,5.20
2023-01-30T23:28:54.234Z,5.53
2023-01-30T23:31:23.496Z,5.20
2023-01-30T23:33:55.664Z,4.80
2023-01-30T23:36:24.313Z,3.80
2023-01-30T23:38:53.089Z,4.50
2023-01-30T23:41:22.511Z,4.83
2023-01-30T23:43:51.597Z,4.67
2023-01-30T23:46:21.053Z,6.10
2023-01-30T23:48:50.072Z,4.53
2023-01-30T23:51:20.580Z,4.70
2023-01-30T23:53:48.835Z,5.80
2023-01-30T23:56:17.453Z,9.10
2023-01-30T23:58:46.144Z,3.50
